createdAt,value
2022-11-16T00:01:57.218Z,13.07
2022-11-16T00:04:25.363Z,12.27
2022-11-16T00:06:53.515Z,12.50
2022-11-16T00:09:26.809Z,13.27
2022-11-16T00:11:57.763Z,13.07
2022-11-16T00:14:27.329Z,12.33
2022-11-16T00:16:55.721Z,12.43
2022-11-16T00:19:24.003Z,11.97
2022-11-16T00:21:52.072Z,11.93
2022-11-16T00:24:22.197Z,13.00
2022-11-16T00:26:50.156Z,13.07
2022-11-16T00:29:21.188Z,11.83
2022-11-16T00:31:49.229Z,12.20
2022-11-16T00:34:17.460Z,13.27
2022-11-16T00:36:45.685Z,12.00
2022-11-16T00:39:14.000Z,11.47
2022-11-16T00:41:41.985Z,14.53
2022-11-16T00:44:10.212Z,12.90
2022-11-16T00:46:39.964Z,13.60
2022-11-16T00:49:07.945Z,12.73
2022-11-16T00:51:37.183Z,12.80
2022-11-16T00:54:06.300Z,13.97
2022-11-16T00:56:34.422Z,14.37
2022-11-16T00:59:02.345Z,14.47
2022-11-16T01:01:30.506Z,15.23
2022-11-16T01:03:59.829Z,13.97
2022-11-16T01:06:27.787Z,14.73
2022-11-16T01:08:55.739Z,15.57
2022-11-16T01:11:41.456Z,14.80
2022-11-16T01:14:10.543Z,15.43
2022-11-16T01:16:38.474Z,14.93
2022-11-16T01:19:08.598Z,17.00
2022-11-16T01:21:36.837Z,14.40
2022-11-16T01:24:04.998Z,15.73
2022-11-16T01:26:33.164Z,15.00
2022-11-16T01:29:01.209Z,14.97
2022-11-16T01:31:29.140Z,14.63
2022-11-16T01:33:57.052Z,16.13
2022-11-16T01:36:26.366Z,15.60
2022-11-16T01:38:54.277Z,14.37
2022-11-16T01:41:24.639Z,14.77
2022-11-16T01:43:56.605Z,15.20
2022-11-16T01:46:25.534Z,14.13
2022-11-16T01:48:56.177Z,13.40
2022-11-16T01:51:24.404Z,13.50
2022-11-16T01:53:53.720Z,13.77
2022-11-16T01:56:22.237Z,14.00
2022-11-16T01:58:50.388Z,13.40
2022-11-16T02:01:18.366Z,13.03
2022-11-16T02:03:46.335Z,14.10
2022-11-16T02:06:32.324Z,14.00
2022-11-16T02:09:30.320Z,15.23
2022-11-16T02:12:13.264Z,12.97
2022-11-16T02:14:53.948Z,15.93
2022-11-16T02:17:29.044Z,14.13
2022-11-16T02:20:29.304Z,14.10
2022-11-16T02:23:10.516Z,14.90
2022-11-16T02:25:52.750Z,14.10
2022-11-16T02:28:34.532Z,14.67
2022-11-16T02:31:07.484Z,12.77
2022-11-16T02:33:37.586Z,14.03
2022-11-16T02:36:07.477Z,12.67
2022-11-16T02:38:38.563Z,15.07
2022-11-16T02:41:10.328Z,14.57
2022-11-16T02:43:41.559Z,14.10
2022-11-16T02:46:14.972Z,14.47
2022-11-16T02:48:44.871Z,16.10
2022-11-16T02:51:13.155Z,16.00
2022-11-16T02:53:51.188Z,15.77
2022-11-16T02:56:19.415Z,17.30
2022-11-16T02:58:48.219Z,16.20
2022-11-16T03:01:22.269Z,17.60
2022-11-16T03:03:53.201Z,16.80
2022-11-16T03:06:24.753Z,16.90
2022-11-16T03:08:56.845Z,17.40
2022-11-16T03:11:42.701Z,18.20
2022-11-16T03:14:22.060Z,17.13
2022-11-16T03:16:54.155Z,16.10
2022-11-16T03:19:26.753Z,20.93
2022-11-16T03:21:59.419Z,20.07
2022-11-16T03:24:27.508Z,19.23
2022-11-16T03:27:01.201Z,20.83
2022-11-16T03:29:32.297Z,21.17
2022-11-16T03:32:06.398Z,19.67
2022-11-16T03:34:36.308Z,19.80
2022-11-16T03:37:05.407Z,24.03
2022-11-16T03:39:35.261Z,33.40
2022-11-16T03:42:05.363Z,23.00
2022-11-16T03:44:33.282Z,17.47
2022-11-16T03:47:02.684Z,17.60
2022-11-16T03:49:31.622Z,19.90
2022-11-16T03:51:59.732Z,19.23
2022-11-16T03:54:27.736Z,17.37
2022-11-16T03:56:55.679Z,17.60
2022-11-16T03:59:23.790Z,15.93
2022-11-16T04:01:52.628Z,17.10
2022-11-16T04:04:39.278Z,18.33
2022-11-16T04:07:24.920Z,15.20
2022-11-16T04:10:10.071Z,25.67
2022-11-16T04:13:02.807Z,16.60
2022-11-16T04:15:48.028Z,18.53
2022-11-16T04:18:33.362Z,19.03
2022-11-16T04:21:20.756Z,16.40
2022-11-16T04:24:07.079Z,18.70
2022-11-16T04:26:54.736Z,14.87
2022-11-16T04:29:22.669Z,13.30
2022-11-16T04:32:08.045Z,15.43
2022-11-16T04:34:53.268Z,14.27
2022-11-16T04:37:39.984Z,15.03
2022-11-16T04:40:09.423Z,15.50
2022-11-16T04:42:37.308Z,15.60
2022-11-16T04:45:23.076Z,14.90
2022-11-16T04:47:51.059Z,14.50
2022-11-16T04:50:19.486Z,16.37
2022-11-16T04:52:48.801Z,15.90
2022-11-16T04:55:16.964Z,17.87
2022-11-16T04:57:44.905Z,17.23
2022-11-16T05:00:14.131Z,63.60
2022-11-16T05:02:42.132Z,15.30
2022-11-16T05:05:10.626Z,15.10
2022-11-16T05:07:38.633Z,13.90
2022-11-16T05:10:09.039Z,15.63
2022-11-16T05:12:37.114Z,13.70
2022-11-16T05:15:05.786Z,14.43
2022-11-16T05:17:34.007Z,14.73
2022-11-16T05:20:19.701Z,14.27
2022-11-16T05:22:53.808Z,13.40
2022-11-16T05:25:23.331Z,11.90
2022-11-16T05:27:51.296Z,12.50
2022-11-16T05:30:19.269Z,14.47
2022-11-16T05:32:47.610Z,14.83
2022-11-16T05:35:15.551Z,13.03
2022-11-16T05:37:43.507Z,13.43
2022-11-16T05:40:12.625Z,12.70
2022-11-16T05:42:41.937Z,13.67
2022-11-16T05:45:10.554Z,12.50
2022-11-16T05:47:38.485Z,13.07
2022-11-16T05:50:07.322Z,11.80
2022-11-16T05:52:35.227Z,11.10
2022-11-16T05:55:03.177Z,14.70
2022-11-16T05:57:31.069Z,11.47
2022-11-16T06:00:00.503Z,11.20
2022-11-16T06:02:28.394Z,11.73
2022-11-16T06:04:56.324Z,13.70
2022-11-16T06:07:24.383Z,28.43
2022-11-16T06:09:52.372Z,11.40
2022-11-16T06:12:20.278Z,11.00
2022-11-16T06:14:48.909Z,12.27
2022-11-16T06:17:18.266Z,10.63
2022-11-16T06:19:46.567Z,11.27
2022-11-16T06:22:16.308Z,10.00
2022-11-16T06:24:44.213Z,10.63
2022-11-16T06:27:12.152Z,12.10
2022-11-16T06:29:40.146Z,11.60
2022-11-16T06:32:08.032Z,11.10
2022-11-16T06:34:37.280Z,11.20
2022-11-16T06:37:05.580Z,11.20
2022-11-16T06:39:33.533Z,9.10
2022-11-16T06:42:01.430Z,9.67
2022-11-16T06:44:29.437Z,9.27
2022-11-16T06:46:57.427Z,9.27
2022-11-16T06:49:25.350Z,10.17
2022-11-16T06:51:54.744Z,11.67
2022-11-16T06:54:22.901Z,10.90
2022-11-16T06:56:50.832Z,10.60
2022-11-16T06:59:18.776Z,10.57
2022-11-16T07:01:46.757Z,9.77
2022-11-16T07:04:16.037Z,10.23
2022-11-16T07:06:44.228Z,9.60
2022-11-16T07:09:17.117Z,9.77
2022-11-16T07:11:45.086Z,10.13
2022-11-16T07:14:13.349Z,9.47
2022-11-16T07:16:41.272Z,10.90
2022-11-16T07:19:10.124Z,9.23
2022-11-16T07:21:38.787Z,9.80
2022-11-16T07:24:06.999Z,8.90
2022-11-16T07:26:37.597Z,9.60
2022-11-16T07:29:05.678Z,9.80
2022-11-16T07:31:33.588Z,7.93
2022-11-16T07:34:01.526Z,8.90
2022-11-16T07:36:31.980Z,13.23
2022-11-16T07:38:59.909Z,14.93
2022-11-16T07:41:27.837Z,9.43
2022-11-16T07:43:57.631Z,11.03
2022-11-16T07:46:46.063Z,9.47
2022-11-16T07:49:16.009Z,8.67
2022-11-16T07:51:44.445Z,8.23
2022-11-16T07:54:13.380Z,8.60
2022-11-16T07:56:41.421Z,9.73
2022-11-16T07:59:11.184Z,9.47
2022-11-16T08:01:39.399Z,8.27
2022-11-16T08:04:07.372Z,7.90
2022-11-16T08:06:35.508Z,8.50
2022-11-16T08:09:04.047Z,8.50
2022-11-16T08:11:32.044Z,8.87
2022-11-16T08:13:59.973Z,9.00
2022-11-16T08:16:29.272Z,8.43
2022-11-16T08:18:57.243Z,8.47
2022-11-16T08:21:25.191Z,8.47
2022-11-16T08:23:58.208Z,8.57
2022-11-16T08:26:27.142Z,7.57
2022-11-16T08:28:57.126Z,9.13
2022-11-16T08:31:29.197Z,9.00
2022-11-16T08:34:00.988Z,9.10
2022-11-16T08:36:28.929Z,8.80
2022-11-16T08:38:56.849Z,8.37
2022-11-16T08:41:25.121Z,7.80
2022-11-16T08:43:54.015Z,9.00
2022-11-16T08:46:22.132Z,8.93
2022-11-16T08:48:50.115Z,9.17
2022-11-16T08:51:20.882Z,9.13
2022-11-16T08:53:49.695Z,9.53
2022-11-16T08:56:19.439Z,7.40
2022-11-16T08:58:50.267Z,7.80
2022-11-16T09:01:22.740Z,8.00
2022-11-16T09:03:50.949Z,8.53
2022-11-16T09:06:20.500Z,7.93
2022-11-16T09:08:48.495Z,8.60
2022-11-16T09:11:18.163Z,8.37
2022-11-16T09:13:47.075Z,8.30
2022-11-16T09:16:16.736Z,8.73
2022-11-16T09:18:46.350Z,7.43
2022-11-16T09:21:18.048Z,7.00
2022-11-16T09:23:47.794Z,7.27
2022-11-16T09:26:16.569Z,6.70
2022-11-16T09:28:44.580Z,7.00
2022-11-16T09:31:12.496Z,8.20
2022-11-16T09:33:40.471Z,6.40
2022-11-16T09:36:10.039Z,6.70
2022-11-16T09:39:14.001Z,7.63
2022-11-16T09:41:45.201Z,6.27
2022-11-16T09:44:20.276Z,6.13
2022-11-16T09:46:50.640Z,6.70
2022-11-16T09:49:22.121Z,6.63
2022-11-16T09:51:54.436Z,7.30
2022-11-16T09:54:24.519Z,6.13
2022-11-16T09:56:56.617Z,5.50
2022-11-16T09:59:26.894Z,4.80
2022-11-16T10:01:57.280Z,4.43
2022-11-16T10:04:36.453Z,4.43
2022-11-16T10:07:07.671Z,7.70
2022-11-16T10:09:36.724Z,6.50
2022-11-16T10:12:11.963Z,4.00
2022-11-16T10:15:01.744Z,3.87
2022-11-16T10:17:38.689Z,3.90
2022-11-16T10:20:22.277Z,3.47
2022-11-16T10:22:56.827Z,6.17
2022-11-16T10:25:27.170Z,5.10
2022-11-16T10:28:17.845Z,3.23
2022-11-16T10:30:51.321Z,3.43
2022-11-16T10:33:20.911Z,4.30
2022-11-16T10:35:53.587Z,4.60
2022-11-16T10:38:23.578Z,4.63
2022-11-16T10:40:54.862Z,3.83
2022-11-16T10:43:25.501Z,4.50
2022-11-16T10:45:58.093Z,4.47
2022-11-16T10:48:37.167Z,4.37
2022-11-16T10:51:06.057Z,4.57
2022-11-16T10:53:35.598Z,4.00
2022-11-16T10:56:17.498Z,4.70
2022-11-16T10:58:58.170Z,3.83
2022-11-16T11:01:31.177Z,4.20
2022-11-16T11:04:01.192Z,4.30
2022-11-16T11:06:29.284Z,4.53
2022-11-16T11:09:15.874Z,4.40
2022-11-16T11:12:01.211Z,4.10
2022-11-16T11:14:32.532Z,4.60
2022-11-16T11:17:12.111Z,5.30
2022-11-16T11:19:40.087Z,4.10
2022-11-16T11:22:14.699Z,4.50
2022-11-16T11:24:48.071Z,5.23
2022-11-16T11:27:24.017Z,5.50
2022-11-16T11:29:56.805Z,4.70
2022-11-16T11:32:33.620Z,4.80
2022-11-16T11:35:01.931Z,5.50
2022-11-16T11:37:31.890Z,7.10
2022-11-16T11:40:20.244Z,5.27
2022-11-16T11:43:01.539Z,5.03
2022-11-16T11:45:35.869Z,5.00
2022-11-16T11:48:08.276Z,4.90
2022-11-16T11:50:45.930Z,5.40
2022-11-16T11:53:23.424Z,4.30
2022-11-16T11:55:56.820Z,4.97
2022-11-16T11:58:27.994Z,5.80
2022-11-16T12:01:11.941Z,5.47
2022-11-16T12:03:55.431Z,5.30
2022-11-16T12:06:34.240Z,5.23
2022-11-16T12:09:15.128Z,4.93
2022-11-16T12:11:55.482Z,5.50
2022-11-16T12:14:31.999Z,5.30
2022-11-16T12:17:07.723Z,4.67
2022-11-16T12:19:59.786Z,5.07
2022-11-16T12:22:45.560Z,5.77
2022-11-16T12:25:25.285Z,5.17
2022-11-16T12:28:06.497Z,5.90
2022-11-16T12:30:37.258Z,6.03
2022-11-16T12:33:14.715Z,6.57
2022-11-16T12:35:50.364Z,6.40
2022-11-16T12:38:27.983Z,5.90
2022-11-16T12:41:15.783Z,6.17
2022-11-16T12:43:47.379Z,6.93
2022-11-16T12:46:23.198Z,6.30
2022-11-16T12:49:14.894Z,6.60
2022-11-16T12:51:57.144Z,8.03
2022-11-16T12:55:24.112Z,6.93
2022-11-16T12:57:48.379Z,8.33
2022-11-16T13:00:16.971Z,8.40
2022-11-16T13:03:14.909Z,7.50
2022-11-16T13:05:54.836Z,7.50
2022-11-16T13:08:34.000Z,9.97
2022-11-16T13:11:05.910Z,9.13
2022-11-16T13:13:36.755Z,7.83
2022-11-16T13:16:06.871Z,7.13
2022-11-16T13:18:37.078Z,6.80
2022-11-16T13:21:12.268Z,7.80
2022-11-16T13:23:47.736Z,6.93
2022-11-16T13:26:22.301Z,6.70
2022-11-16T13:28:56.231Z,6.50
2022-11-16T13:31:31.500Z,7.10
2022-11-16T13:34:01.967Z,7.70
2022-11-16T13:36:45.178Z,7.30
2022-11-16T13:39:21.986Z,6.63
2022-11-16T13:41:51.213Z,8.33
2022-11-16T13:44:28.246Z,8.30
2022-11-16T13:47:04.235Z,10.43
2022-11-16T13:49:35.368Z,14.10
2022-11-16T13:52:22.686Z,11.93
2022-11-16T13:54:53.520Z,6.20
2022-11-16T13:57:25.675Z,7.07
2022-11-16T14:00:09.474Z,8.27
2022-11-16T14:02:38.406Z,8.03
2022-11-16T14:05:15.529Z,8.03
2022-11-16T14:07:47.377Z,9.10
2022-11-16T14:10:48.793Z,8.93
2022-11-16T14:13:38.480Z,32.70
2022-11-16T14:16:36.473Z,10.90
2022-11-16T14:19:06.164Z,10.23
2022-11-16T14:21:43.183Z,11.83
2022-11-16T14:24:20.652Z,11.20
2022-11-16T14:26:54.796Z,14.80
2022-11-16T14:29:49.216Z,12.37
2022-11-16T14:32:21.308Z,10.83
2022-11-16T14:34:51.201Z,11.60
2022-11-16T14:37:31.582Z,12.03
2022-11-16T14:40:04.388Z,11.97
2022-11-16T14:42:54.368Z,12.80
2022-11-16T14:45:25.798Z,11.93
2022-11-16T14:47:54.862Z,12.33
2022-11-16T14:50:24.305Z,13.80
2022-11-16T14:52:54.732Z,14.80
2022-11-16T14:55:26.661Z,15.00
2022-11-16T14:58:08.760Z,10.27
2022-11-16T15:00:37.495Z,11.20
2022-11-16T15:03:06.162Z,11.27
2022-11-16T15:05:35.804Z,9.87
2022-11-16T15:08:14.687Z,8.67
2022-11-16T15:10:51.079Z,9.13
2022-11-16T15:13:22.288Z,10.37
2022-11-16T15:15:52.685Z,11.53
2022-11-16T15:18:22.070Z,7.37
2022-11-16T15:20:51.800Z,8.27
2022-11-16T15:23:23.790Z,7.60
2022-11-16T15:25:56.650Z,7.50
2022-11-16T15:28:27.126Z,7.23
2022-11-16T15:30:56.972Z,7.87
2022-11-16T15:33:27.275Z,8.40
2022-11-16T15:35:56.264Z,9.10
2022-11-16T15:38:25.801Z,11.10
2022-11-16T15:40:56.167Z,9.63
2022-11-16T15:43:25.614Z,7.50
2022-11-16T15:45:54.296Z,7.63
2022-11-16T15:48:23.972Z,8.07
2022-11-16T15:51:04.110Z,8.37
2022-11-16T15:53:38.145Z,9.80
2022-11-16T15:56:10.307Z,7.73
2022-11-16T15:58:39.920Z,7.57
2022-11-16T16:01:08.208Z,7.53
2022-11-16T16:03:37.783Z,8.10
2022-11-16T16:06:06.487Z,10.30
2022-11-16T16:08:35.544Z,9.13
2022-11-16T16:11:07.805Z,10.97
2022-11-16T16:13:38.399Z,11.13
2022-11-16T16:16:28.023Z,10.57
2022-11-16T16:18:58.215Z,13.47
2022-11-16T16:21:27.684Z,13.10
2022-11-16T16:23:56.844Z,13.57
2022-11-16T16:26:26.158Z,11.70
2022-11-16T16:28:54.040Z,8.30
2022-11-16T16:31:21.997Z,9.93
2022-11-16T16:33:49.878Z,9.10
2022-11-16T16:36:17.890Z,10.33
2022-11-16T16:38:45.759Z,11.70
2022-11-16T16:41:23.746Z,11.80
2022-11-16T16:43:53.740Z,11.27
2022-11-16T16:46:21.850Z,9.13
2022-11-16T16:48:49.730Z,9.30
2022-11-16T16:51:17.632Z,8.13
2022-11-16T16:53:45.560Z,7.70
2022-11-16T16:56:16.066Z,5.90
2022-11-16T16:58:44.002Z,8.50
2022-11-16T17:01:14.168Z,19.13
2022-11-16T17:03:42.109Z,31.30
2022-11-16T17:06:10.065Z,22.47
2022-11-16T17:08:38.972Z,22.97
2022-11-16T17:11:06.911Z,27.23
2022-11-16T17:13:35.162Z,21.47
2022-11-16T17:16:06.128Z,20.77
2022-11-16T17:18:35.419Z,17.73
2022-11-16T17:21:07.044Z,16.20
2022-11-16T17:23:35.396Z,12.37
2022-11-16T17:26:05.154Z,13.70
2022-11-16T17:28:33.071Z,13.50
2022-11-16T17:31:05.283Z,13.03
2022-11-16T17:33:36.444Z,12.30
2022-11-16T17:36:05.593Z,12.63
2022-11-16T17:38:34.303Z,13.80
2022-11-16T17:41:06.637Z,11.53
2022-11-16T17:43:35.377Z,11.93
2022-11-16T17:46:07.760Z,11.90
2022-11-16T17:48:38.027Z,8.20
2022-11-16T17:51:06.602Z,8.00
2022-11-16T17:53:35.606Z,7.43
2022-11-16T17:56:04.324Z,7.90
2022-11-16T17:58:32.986Z,7.30
2022-11-16T18:01:01.028Z,7.70
2022-11-16T18:03:29.444Z,6.50
2022-11-16T18:06:04.943Z,7.80
2022-11-16T18:08:33.187Z,5.87
2022-11-16T18:11:05.289Z,5.80
2022-11-16T18:13:33.859Z,6.77
2022-11-16T18:16:06.302Z,6.30
2022-11-16T18:18:34.265Z,8.00
2022-11-16T18:21:03.557Z,8.03
2022-11-16T18:23:31.663Z,6.53
2022-11-16T18:25:59.733Z,6.83
2022-11-16T18:28:27.660Z,6.97
2022-11-16T18:31:03.367Z,6.33
2022-11-16T18:33:31.277Z,6.13
2022-11-16T18:35:59.307Z,6.10
2022-11-16T18:38:28.627Z,7.17
2022-11-16T18:41:07.389Z,7.33
2022-11-16T18:43:35.898Z,8.37
2022-11-16T18:46:04.297Z,8.23
2022-11-16T18:48:32.320Z,7.30
2022-11-16T18:51:00.403Z,7.07
2022-11-16T18:53:30.957Z,6.20
2022-11-16T18:55:59.214Z,7.63
2022-11-16T19:01:17.784Z,6.47
2022-11-16T19:03:45.966Z,7.73
2022-11-16T19:06:14.904Z,7.50
2022-11-16T19:08:46.905Z,20.73
2022-11-16T19:11:18.540Z,10.10
2022-11-16T19:13:46.963Z,10.00
2022-11-16T19:16:15.043Z,25.53
2022-11-16T19:18:42.956Z,11.60
2022-11-16T19:21:12.263Z,11.30
2022-11-16T19:23:41.375Z,8.10
2022-11-16T19:26:12.697Z,6.57
2022-11-16T19:28:41.752Z,7.00
2022-11-16T19:31:10.537Z,7.20
2022-11-16T19:33:39.139Z,7.93
2022-11-16T19:36:08.660Z,6.67
2022-11-16T19:38:36.798Z,6.93
2022-11-16T19:41:05.064Z,10.53
2022-11-16T19:43:34.744Z,8.17
2022-11-16T19:46:04.525Z,10.40
2022-11-16T19:48:33.114Z,8.97
2022-11-16T19:51:06.323Z,11.17
2022-11-16T19:53:34.736Z,11.37
2022-11-16T19:56:03.065Z,11.33
2022-11-16T19:58:31.995Z,15.13
2022-11-16T20:01:06.224Z,14.20
2022-11-16T20:03:34.910Z,15.00
2022-11-16T20:06:08.208Z,11.73
2022-11-16T20:08:36.316Z,11.70
2022-11-16T20:11:11.727Z,15.97
2022-11-16T20:13:39.649Z,15.50
2022-11-16T20:16:11.031Z,16.27
2022-11-16T20:18:39.484Z,12.90
2022-11-16T20:21:07.960Z,11.10
2022-11-16T20:23:37.522Z,9.73
2022-11-16T20:26:06.457Z,9.00
2022-11-16T20:28:38.170Z,9.80
2022-11-16T20:31:11.077Z,7.00
2022-11-16T20:33:39.101Z,6.90
2022-11-16T20:36:08.802Z,8.10
2022-11-16T20:38:37.900Z,8.50
2022-11-16T20:41:10.530Z,8.97
2022-11-16T20:43:39.343Z,10.20
2022-11-16T20:46:07.768Z,9.13
2022-11-16T20:48:37.513Z,15.00
2022-11-16T20:51:05.797Z,18.40
2022-11-16T20:53:34.164Z,11.30
2022-11-16T20:56:03.184Z,32.93
2022-11-16T20:58:31.323Z,26.80
2022-11-16T21:01:00.891Z,23.80
2022-11-16T21:03:29.147Z,9.10
2022-11-16T21:05:58.409Z,7.80
2022-11-16T21:08:27.247Z,7.83
2022-11-16T21:10:55.332Z,10.07
2022-11-16T21:13:40.552Z,12.07
2022-11-16T21:16:11.375Z,11.70
2022-11-16T21:18:40.040Z,10.63
2022-11-16T21:21:11.122Z,10.20
2022-11-16T21:23:40.899Z,10.00
2022-11-16T21:26:11.243Z,12.50
2022-11-16T21:28:39.416Z,15.30
2022-11-16T21:31:08.756Z,19.00
2022-11-16T21:33:37.202Z,16.97
2022-11-16T21:36:06.056Z,14.23
2022-11-16T21:38:35.655Z,12.67
2022-11-16T21:41:04.400Z,10.80
2022-11-16T21:43:33.784Z,9.43
2022-11-16T21:46:03.005Z,9.27
2022-11-16T21:48:33.110Z,17.80
2022-11-16T21:51:01.722Z,7.40
2022-11-16T21:53:29.839Z,8.47
2022-11-16T21:55:59.411Z,10.70
2022-11-16T21:58:27.495Z,6.90
2022-11-16T22:00:56.291Z,9.80
2022-11-16T22:03:26.510Z,8.00
2022-11-16T22:06:12.431Z,10.10
2022-11-16T22:08:40.887Z,9.70
2022-11-16T22:11:10.768Z,12.07
2022-11-16T22:13:39.353Z,8.67
2022-11-16T22:16:08.016Z,7.03
2022-11-16T22:18:36.476Z,6.80
2022-11-16T22:21:04.577Z,7.70
2022-11-16T22:23:32.939Z,7.33
2022-11-16T22:26:05.584Z,7.50
2022-11-16T22:28:35.475Z,7.10
2022-11-16T22:31:04.214Z,8.07
2022-11-16T22:33:32.421Z,8.30
2022-11-16T22:36:00.544Z,9.63
2022-11-16T22:38:28.612Z,7.93
2022-11-16T22:40:57.525Z,7.30
2022-11-16T22:43:26.912Z,8.63
2022-11-16T22:45:59.987Z,6.90
2022-11-16T22:48:32.367Z,8.30
2022-11-16T22:51:04.562Z,8.27
2022-11-16T22:53:32.895Z,5.80
2022-11-16T22:56:05.834Z,7.40
2022-11-16T22:58:33.750Z,6.20
2022-11-16T23:01:03.063Z,8.10
2022-11-16T23:03:31.914Z,11.73
2022-11-16T23:06:00.579Z,10.10
2022-11-16T23:08:28.842Z,12.10
2022-11-16T23:11:19.152Z,12.77
2022-11-16T23:14:04.392Z,12.50
2022-11-16T23:16:33.800Z,10.60
2022-11-16T23:19:01.689Z,13.93
2022-11-16T23:21:58.563Z,9.77
2022-11-16T23:24:44.112Z,11.77
2022-11-16T23:27:38.028Z,9.40
2022-11-16T23:30:12.407Z,12.97
2022-11-16T23:32:42.874Z,10.40
2022-11-16T23:35:11.246Z,11.83
2022-11-16T23:37:51.681Z,10.40
2022-11-16T23:40:19.758Z,8.10
2022-11-16T23:43:05.168Z,9.87
2022-11-16T23:45:33.089Z,9.90
2022-11-16T23:48:02.467Z,13.03
2022-11-16T23:50:30.448Z,12.60
2022-11-16T23:52:58.317Z,18.70
2022-11-16T23:55:26.688Z,15.30
2022-11-16T23:57:54.683Z,9.60
